Time;durP1;ratioP1;P1;durP2;ratioP2;P2;SDS_P1;SDS_P2;PMS_P1;PMS_P2;Temp;Humidity;BMP_temperature;BMP_pressure;BME280_temperature;BME280_humidity;BME280_pressure;Samples;Min_cycle;Max_cycle;Signal;HPM_P1;HPM_P2
2023/10/22 00:01:43;;;;;;;5.20;1.10;;;;;;;11.87;100.00;99316.06;4983614;28;20930;-73
2023/10/22 00:04:10;;;;;;;4.50;1.33;;;;;;;12.47;100.00;99378.22;4978163;28;20217;-74
2023/10/22 00:06:35;;;;;;;5.50;1.17;;;;;;;12.51;100.00;99384.75;4981845;28;20949;-74
2023/10/22 00:09:01;;;;;;;4.57;1.20;;;;;;;12.43;100.00;99380.59;4980562;28;20239;-74
2023/10/22 00:11:26;;;;;;;5.10;1.10;;;;;;;12.27;100.00;99355.38;4983364;28;20197;-74
2023/10/22 00:13:51;;;;;;;3.60;1.17;;;;;;;12.25;100.00;99346.75;4980126;28;20662;-73
2023/10/22 00:16:17;;;;;;;9.10;1.60;;;;;;;12.26;100.00;99348.34;4979542;28;20213;-73
2023/10/22 00:18:42;;;;;;;4.40;1.17;;;;;;;12.26;100.00;99360.97;4978039;28;20210;-74
2023/10/22 00:21:08;;;;;;;5.10;1.37;;;;;;;12.30;100.00;99362.13;4982055;28;20302;-74
2023/10/22 00:23:34;;;;;;;5.00;1.23;;;;;;;12.40;100.00;99357.72;4978117;28;20663;-74
2023/10/22 00:26:00;;;;;;;5.50;1.20;;;;;;;11.96;100.00;99290.41;4984259;28;20192;-74
2023/10/22 00:28:25;;;;;;;3.90;1.40;;;;;;;12.23;100.00;99348.03;4982760;28;20461;-74
2023/10/22 00:30:51;;;;;;;4.50;1.10;;;;;;;12.34;100.00;99358.69;4986635;28;20193;-74
2023/10/22 00:33:17;;;;;;;3.13;0.80;;;;;;;12.16;100.00;99361.66;4982467;28;20685;-74
2023/10/22 00:35:42;;;;;;;8.10;1.90;;;;;;;11.95;100.00;99342.53;5002524;28;20433;-74
2023/10/22 00:38:08;;;;;;;7.73;1.07;;;;;;;12.01;100.00;99342.59;4984658;28;20226;-72
2023/10/22 00:40:33;;;;;;;4.37;1.17;;;;;;;11.84;100.00;99326.44;4994676;28;20190;-74
2023/10/22 00:43:03;;;;;;;7.30;1.73;;;;;;;11.86;100.00;99329.72;4983555;28;20276;-72
2023/10/22 00:45:34;;;;;;;6.27;1.40;;;;;;;11.97;100.00;99351.13;4982315;28;20221;-72
2023/10/22 00:48:00;;;;;;;4.17;1.40;;;;;;;12.02;100.00;99361.16;4979654;28;20443;-72
2023/10/22 00:50:25;;;;;;;4.63;1.03;;;;;;;12.05;100.00;99376.78;4982034;28;20444;-73
2023/10/22 00:52:51;;;;;;;4.50;0.90;;;;;;;12.04;100.00;99372.50;4983028;28;20725;-72
2023/10/22 00:55:16;;;;;;;7.03;1.27;;;;;;;11.35;100.00;99273.25;4982792;28;20200;-72
2023/10/22 00:57:42;;;;;;;4.10;1.20;;;;;;;12.10;100.00;99378.75;4984395;28;20849;-72
2023/10/22 01:00:08;;;;;;;5.07;1.50;;;;;;;11.32;100.00;99249.59;4979908;28;20210;-72
2023/10/22 01:02:34;;;;;;;6.63;1.40;;;;;;;11.96;100.00;99375.56;4983475;28;20678;-72
2023/10/22 01:05:00;;;;;;;5.40;1.63;;;;;;;11.65;100.00;99344.66;4981243;28;20438;-73
2023/10/22 01:07:25;;;;;;;4.13;1.20;;;;;;;11.77;100.00;99391.91;4983623;28;20193;-72
2023/10/22 01:12:20;;;;;;;5.90;1.17;;;;;;;9.12;100.00;98955.97;4992192;28;20639;-79
2023/10/22 01:14:46;;;;;;;5.97;1.00;;;;;;;9.74;100.00;99106.06;4984741;28;20425;-79
2023/10/22 01:17:11;;;;;;;3.50;1.10;;;;;;;8.89;100.00;98970.19;4996231;28;20202;-79
2023/10/22 01:19:37;;;;;;;3.87;0.90;;;;;;;10.02;100.00;99158.06;4979310;28;20731;-79
2023/10/22 01:22:03;;;;;;;5.30;1.33;;;;;;;9.14;100.00;99018.06;4971869;28;20214;-79
2023/10/22 01:24:32;;;;;;;5.03;1.17;;;;;;;10.36;100.00;99230.63;4970924;28;20186;-79
2023/10/22 01:26:57;;;;;;;6.60;1.30;;;;;;;10.03;100.00;99196.38;4970820;28;20241;-78
2023/10/22 01:29:23;;;;;;;4.57;1.20;;;;;;;9.62;100.00;99118.66;4970754;28;20461;-79
2023/10/22 01:31:49;;;;;;;3.90;0.80;;;;;;;10.27;100.00;99208.72;4972567;28;20178;-79
2023/10/22 01:34:14;;;;;;;3.80;1.00;;;;;;;10.07;100.00;99170.75;4972406;28;20444;-79
2023/10/22 01:36:41;;;;;;;5.00;1.07;;;;;;;10.02;100.00;99141.19;4973733;28;20623;-79
2023/10/22 01:39:12;;;;;;;5.33;1.00;;;;;;;10.02;100.00;99128.59;4969503;28;20258;-79
2023/10/22 01:41:40;;;;;;;6.73;1.37;;;;;;;10.25;100.00;99154.53;4988285;28;20433;-79
2023/10/22 01:44:05;;;;;;;5.70;1.33;;;;;;;10.16;100.00;99150.59;4968236;28;20469;-79
2023/10/22 01:46:31;;;;;;;2.87;0.73;;;;;;;10.50;100.00;99189.09;4972431;28;20422;-79
2023/10/22 01:48:57;;;;;;;3.80;1.23;;;;;;;10.10;100.00;99132.78;4973325;28;20220;-80
2023/10/22 01:51:23;;;;;;;6.30;1.30;;;;;;;10.27;100.00;99125.66;4972675;28;20850;-79
2023/10/22 01:53:48;;;;;;;3.90;1.00;;;;;;;10.00;100.00;99101.22;4973228;28;20183;-79
2023/10/22 01:56:14;;;;;;;6.60;1.20;;;;;;;9.87;100.00;99072.06;4962865;28;20566;-79
2023/10/22 01:58:40;;;;;;;5.57;1.27;;;;;;;10.53;100.00;99140.34;4986464;28;20202;-79
2023/10/22 02:01:06;;;;;;;4.50;1.20;;;;;;;9.94;100.00;98992.38;4972729;28;20496;-79
2023/10/22 02:03:35;;;;;;;5.13;1.10;;;;;;;9.45;100.00;98892.94;4968084;28;20198;-79
2023/10/22 02:06:01;;;;;;;4.77;1.07;;;;;;;10.44;100.00;99060.53;4987590;28;20237;-80
2023/10/22 02:08:26;;;;;;;3.60;1.10;;;;;;;11.24;100.00;99188.25;4971805;28;20465;-79
2023/10/22 02:10:52;;;;;;;6.77;1.27;;;;;;;10.62;100.00;99068.41;4972564;28;20832;-79
2023/10/22 02:13:17;;;;;;;3.70;1.10;;;;;;;9.48;100.00;98898.63;4967101;28;20208;-79
2023/10/22 02:15:43;;;;;;;4.60;1.63;;;;;;;11.20;100.00;99195.97;4970634;28;20356;-79
2023/10/22 02:18:09;;;;;;;5.10;1.20;;;;;;;11.42;100.00;99228.28;4968719;28;20595;-79
2023/10/22 02:20:34;;;;;;;3.37;0.90;;;;;;;9.84;100.00;98981.50;4973603;28;20446;-79
2023/10/22 02:23:01;;;;;;;4.97;0.93;;;;;;;9.60;100.00;98905.78;4973091;28;20233;-79
2023/10/22 02:25:26;;;;;;;4.60;1.20;;;;;;;10.10;100.00;99028.31;4972286;28;20272;-79
2023/10/22 02:27:53;;;;;;;5.37;1.60;;;;;;;10.19;100.00;99006.25;4967626;28;20462;-78
2023/10/22 02:30:19;;;;;;;8.63;1.07;;;;;;;11.32;100.00;99169.06;4969789;28;20209;-79
2023/10/22 02:32:44;;;;;;;3.50;1.07;;;;;;;12.27;100.00;99378.75;4969284;28;20430;-80
2023/10/22 02:35:10;;;;;;;3.37;0.90;;;;;;;10.87;100.00;99180.63;4984822;28;20213;-79
2023/10/22 02:37:36;;;;;;;7.00;1.60;;;;;;;9.42;100.00;98888.06;4968630;28;20214;-79
2023/10/22 02:40:03;;;;;;;6.53;1.27;;;;;;;10.01;100.00;99043.13;4975103;28;20491;-79
2023/10/22 02:42:29;;;;;;;3.83;1.00;;;;;;;11.34;100.00;99242.13;4970394;28;20449;-79
2023/10/22 02:44:55;;;;;;;4.63;1.17;;;;;;;10.27;100.00;99085.47;4975025;28;20441;-80
2023/10/22 02:47:21;;;;;;;4.30;1.10;;;;;;;9.74;100.00;98964.16;4969371;28;20425;-80
2023/10/22 02:49:46;;;;;;;4.27;1.03;;;;;;;9.42;100.00;98969.16;4977652;28;20203;-80
2023/10/22 02:52:12;;;;;;;4.03;1.13;;;;;;;10.67;100.00;99142.72;4994543;28;20981;-80
2023/10/22 02:54:37;;;;;;;3.77;1.00;;;;;;;10.87;100.00;99180.63;4976878;28;20190;-79
2023/10/22 02:57:03;;;;;;;7.83;1.00;;;;;;;11.34;100.00;99246.66;4978226;28;21151;-80
2023/10/22 02:59:28;;;;;;;4.83;1.30;;;;;;;9.92;100.00;99061.44;4977244;28;20198;-80
2023/10/22 03:01:54;;;;;;;4.73;1.40;;;;;;;10.34;100.00;99104.06;4971494;28;20610;-79
2023/10/22 03:04:20;;;;;;;5.93;1.50;;;;;;;9.39;100.00;98926.00;4974841;28;20189;-80
2023/10/22 03:06:45;;;;;;;3.43;0.83;;;;;;;10.61;100.00;99139.13;4991489;28;20211;-79
2023/10/22 03:09:13;;;;;;;10.80;1.43;;;;;;;9.91;100.00;99114.19;4976157;28;20265;-79
2023/10/22 03:11:38;;;;;;;6.03;1.27;;;;;;;11.18;100.00;99308.13;4971802;28;20194;-79
2023/10/22 03:14:05;;;;;;;2.67;0.90;;;;;;;9.72;100.00;99118.88;4972381;28;20436;-79
2023/10/22 03:16:30;;;;;;;4.10;1.10;;;;;;;9.68;100.00;99136.44;4986471;28;20210;-79
2023/10/22 03:18:55;;;;;;;4.60;1.03;;;;;;;10.27;100.00;99215.94;4969822;28;20462;-79
2023/10/22 03:21:24;;;;;;;3.30;1.00;;;;;;;11.01;100.00;99356.34;4975380;28;20187;-80
2023/10/22 03:23:49;;;;;;;4.40;1.00;;;;;;;10.34;100.00;99351.44;4977373;28;20733;-79
2023/10/22 03:26:16;;;;;;;2.83;0.80;;;;;;;9.58;100.00;99263.91;4972180;28;20450;-79
2023/10/22 03:28:42;;;;;;;4.33;1.00;;;;;;;10.44;100.00;99398.28;4986438;28;20206;-80
2023/10/22 03:31:08;;;;;;;4.53;1.20;;;;;;;9.55;100.00;99245.66;4970290;28;20936;-79
2023/10/22 03:33:34;;;;;;;5.40;0.97;;;;;;;8.91;100.00;99165.13;4976210;28;20449;-80
2023/10/22 03:36:00;;;;;;;3.83;1.03;;;;;;;10.07;100.00;99355.59;4974476;28;20194;-79
2023/10/22 03:38:26;;;;;;;5.90;1.20;;;;;;;8.97;100.00;99196.31;4975469;28;20802;-79
2023/10/22 03:40:58;;;;;;;4.40;0.90;;;;;;;11.88;100.00;99675.00;4986122;28;20935;-79
2023/10/22 03:43:24;;;;;;;4.30;0.80;;;;;;;12.00;100.00;99744.88;4976509;28;20484;-79
2023/10/22 03:45:49;;;;;;;5.27;1.23;;;;;;;9.39;100.00;99272.00;4974397;28;20841;-79
2023/10/22 03:48:15;;;;;;;7.30;1.30;;;;;;;8.87;100.00;99204.06;4971187;28;20460;-80
2023/10/22 03:50:43;;;;;;;4.00;1.00;;;;;;;10.80;100.00;99536.69;4975766;28;20187;-80
2023/10/22 03:53:09;;;;;;;4.37;1.10;;;;;;;9.13;100.00;99227.75;4973904;28;20187;-79
2023/10/22 03:55:34;;;;;;;4.17;1.07;;;;;;;9.18;100.00;99241.25;4967737;28;20448;-80
2023/10/22 03:57:59;;;;;;;5.30;1.20;;;;;;;10.97;100.00;99579.75;4975378;28;20213;-79
2023/10/22 04:00:25;;;;;;;6.33;0.90;;;;;;;10.70;100.00;99534.56;4972231;28;20175;-80
2023/10/22 04:02:50;;;;;;;6.80;0.93;;;;;;;9.56;100.00;99368.53;4970082;28;20184;-79
2023/10/22 04:05:16;;;;;;;4.57;0.93;;;;;;;9.86;100.00;99367.66;4974583;28;20779;-79
2023/10/22 04:07:41;;;;;;;4.73;1.00;;;;;;;10.32;100.00;99513.53;4974345;28;20233;-80
2023/10/22 04:10:09;;;;;;;5.30;1.20;;;;;;;10.25;100.00;99437.75;4991736;28;20210;-79
2023/10/22 04:12:36;;;;;;;6.07;1.30;;;;;;;9.10;100.00;99254.13;4974134;28;20182;-79
2023/10/22 04:15:02;;;;;;;8.77;1.20;;;;;;;11.04;100.00;99569.72;4969273;28;20478;-79
2023/10/22 04:17:28;;;;;;;6.00;1.20;;;;;;;10.29;100.00;99444.31;4973235;28;20981;-79
2023/10/22 04:19:55;;;;;;;3.27;0.90;;;;;;;9.36;100.00;99236.88;4976519;28;20450;-80
2023/10/22 04:22:20;;;;;;;3.70;0.80;;;;;;;9.42;100.00;99273.41;4974178;28;20194;-80
2023/10/22 04:24:46;;;;;;;4.00;0.90;;;;;;;11.11;100.00;99489.94;4971625;28;20442;-79
2023/10/22 04:27:11;;;;;;;4.57;1.20;;;;;;;10.05;100.00;99307.59;4972074;28;20254;-80
2023/10/22 04:29:38;;;;;;;7.57;1.10;;;;;;;10.52;100.00;99384.53;4974019;28;20281;-79
2023/10/22 04:32:04;;;;;;;6.03;1.00;;;;;;;10.46;100.00;99405.06;4991836;28;20677;-79
2023/10/22 04:34:29;;;;;;;3.00;1.00;;;;;;;10.58;100.00;99381.72;4973337;28;20528;-80
2023/10/22 04:36:55;;;;;;;4.77;1.10;;;;;;;9.59;100.00;99180.69;4976937;28;20511;-78
2023/10/22 04:39:20;;;;;;;9.00;1.00;;;;;;;10.54;100.00;99326.16;4976803;28;20710;-79
2023/10/22 04:41:45;;;;;;;4.63;0.80;;;;;;;10.87;100.00;99422.03;4968690;28;20191;-80
2023/10/22 04:44:11;;;;;;;4.40;1.00;;;;;;;10.40;100.00;99344.34;4972142;28;20683;-79
2023/10/22 04:46:36;;;;;;;3.60;0.90;;;;;;;10.44;100.00;99320.53;4971796;28;20205;-80
2023/10/22 04:49:02;;;;;;;5.33;0.83;;;;;;;10.07;100.00;99278.72;4969778;28;20202;-79
2023/10/22 04:51:27;;;;;;;4.27;0.80;;;;;;;11.14;100.00;99477.88;4974098;28;20251;-80
2023/10/22 04:53:53;;;;;;;3.70;0.90;;;;;;;10.38;100.00;99354.47;4971737;28;20182;-79
2023/10/22 04:56:18;;;;;;;6.80;0.80;;;;;;;9.60;100.00;99254.59;4971561;28;20191;-80
2023/10/22 04:58:43;;;;;;;4.23;1.10;;;;;;;9.66;100.00;99271.59;4975150;28;20199;-80
2023/10/22 05:01:10;;;;;;;3.40;0.87;;;;;;;10.50;100.00;99467.91;4991205;28;20179;-80
2023/10/22 05:03:36;;;;;;;4.83;0.80;;;;;;;10.23;100.00;99451.38;4984528;28;20214;-79
2023/10/22 05:06:06;;;;;;;3.07;0.80;;;;;;;10.37;100.00;99474.28;4971106;28;20490;-79
2023/10/22 05:08:34;;;;;;;5.47;0.80;;;;;;;10.51;100.00;99549.94;4971030;28;20202;-81
2023/10/22 05:11:04;;;;;;;3.23;0.70;;;;;;;10.21;100.00;99514.28;4970813;28;20518;-79
2023/10/22 05:13:30;;;;;;;4.10;0.90;;;;;;;9.87;100.00;99447.78;4984014;28;20434;-80
2023/10/22 05:15:56;;;;;;;4.60;1.00;;;;;;;9.78;100.00;99512.59;4966056;28;20444;-80
2023/10/22 05:18:22;;;;;;;4.77;0.90;;;;;;;9.91;100.00;99545.38;4980146;28;20206;-80
2023/10/22 05:20:48;;;;;;;3.47;1.00;;;;;;;10.21;100.00;99638.34;4970543;28;20798;-80
2023/10/22 05:23:14;;;;;;;3.57;0.97;;;;;;;9.27;100.00;99555.59;4985532;28;20186;-80
2023/10/22 05:25:41;;;;;;;5.43;0.90;;;;;;;10.73;100.00;99826.47;4972054;28;20438;-80
2023/10/22 05:28:06;;;;;;;2.90;0.70;;;;;;;9.59;100.00;99654.50;4971433;28;20520;-80
2023/10/22 05:30:32;;;;;;;4.93;1.57;;;;;;;9.07;100.00;99695.94;4966358;28;20955;-80
2023/10/22 05:32:57;;;;;;;3.37;0.80;;;;;;;9.76;100.00;99818.13;4971117;28;20222;-81
2023/10/22 05:35:23;;;;;;;4.60;1.00;;;;;;;10.34;100.00;99980.50;4968596;28;20273;-80
2023/10/22 05:37:49;;;;;;;3.60;0.90;;;;;;;10.28;100.00;99994.78;4971048;28;20697;-80
2023/10/22 05:40:15;;;;;;;6.50;1.17;;;;;;;9.39;100.00;99890.22;4973819;28;20655;-80
2023/10/22 05:42:41;;;;;;;4.50;1.00;;;;;;;9.02;100.00;99905.19;4970033;28;20430;-80
2023/10/22 05:45:07;;;;;;;3.80;0.80;;;;;;;9.28;100.00;100022.84;4970962;28;20450;-80
2023/10/22 05:47:33;;;;;;;3.53;0.70;;;;;;;9.77;100.00;100132.25;4973285;28;20466;-80
2023/10/22 05:49:59;;;;;;;4.20;0.97;;;;;;;10.54;100.00;100296.75;4966763;28;20465;-80
2023/10/22 05:52:26;;;;;;;3.80;0.93;;;;;;;10.69;100.00;100367.06;4966273;28;20422;-80
2023/10/22 05:54:52;;;;;;;3.83;1.40;;;;;;;10.29;100.00;100334.16;4974867;28;20449;-81
2023/10/22 05:57:20;;;;;;;5.10;1.30;;;;;;;9.90;100.00;100343.84;4985621;28;21031;-81
2023/10/22 05:59:45;;;;;;;7.40;2.10;;;;;;;8.94;100.00;100208.50;4972771;28;20271;-81
2023/10/22 06:02:11;;;;;;;5.83;2.07;;;;;;;9.11;100.00;100269.63;4971341;28;20445;-81
2023/10/22 06:04:36;;;;;;;4.60;1.87;;;;;;;8.72;100.00;100266.66;4976049;28;20258;-82
2023/10/22 06:07:02;;;;;;;5.33;1.80;;;;;;;10.08;100.00;100563.78;4975757;28;20186;-82
2023/10/22 06:09:27;;;;;;;5.20;1.40;;;;;;;9.66;100.00;100563.03;4972559;28;20699;-81
2023/10/22 06:11:53;;;;;;;3.37;1.27;;;;;;;8.63;100.00;100417.56;4977446;28;20194;-82
2023/10/22 06:14:18;;;;;;;5.23;1.70;;;;;;;9.59;100.00;100639.81;4979112;28;20186;-82
2023/10/22 06:16:43;;;;;;;5.53;1.70;;;;;;;8.73;100.00;100545.56;4977300;28;20195;-81
2023/10/22 06:19:09;;;;;;;4.77;1.30;;;;;;;10.47;100.00;100851.88;4974275;28;20218;-81
2023/10/22 06:21:34;;;;;;;3.80;1.30;;;;;;;9.30;100.00;100723.00;4978059;28;20197;-81
2023/10/22 06:24:00;;;;;;;4.00;1.37;;;;;;;9.21;100.00;100749.09;4976747;28;20195;-82
2023/10/22 06:26:25;;;;;;;4.20;1.40;;;;;;;10.50;100.00;100985.56;4978516;28;20206;-82
2023/10/22 06:28:51;;;;;;;3.60;1.27;;;;;;;8.99;100.00;100775.81;4980611;28;20462;-82
2023/10/22 06:31:17;;;;;;;3.40;1.30;;;;;;;10.19;100.00;101013.50;4972872;28;20225;-81
2023/10/22 06:33:43;;;;;;;3.10;1.00;;;;;;;9.90;100.00;100984.16;4979272;28;20663;-81
2023/10/22 06:36:22;;;;;;;6.07;2.10;;;;;;;10.47;100.00;101078.97;4977000;28;20270;-81
2023/10/22 06:38:48;;;;;;;3.43;1.57;;;;;;;10.68;100.00;101137.97;4980379;28;20214;-81
2023/10/22 06:41:20;;;;;;;3.83;1.30;;;;;;;9.43;100.00;100994.38;4972333;28;20480;-81
2023/10/22 06:43:47;;;;;;;3.10;1.27;;;;;;;10.63;100.00;101181.47;4973035;28;20452;-81
2023/10/22 06:46:13;;;;;;;3.20;1.20;;;;;;;10.58;100.00;101186.56;4988411;28;20418;-81
2023/10/22 06:48:39;;;;;;;3.63;1.63;;;;;;;9.83;100.00;101125.25;4970636;28;20455;-81
2023/10/22 06:51:12;;;;;;;3.23;1.37;;;;;;;9.14;100.00;101015.78;4991427;28;20426;-80
2023/10/22 06:53:39;;;;;;;3.10;1.17;;;;;;;10.68;100.00;101290.06;4987544;28;20441;-81
2023/10/22 06:56:07;;;;;;;3.37;1.13;;;;;;;9.75;100.00;101174.41;4971188;28;20441;-80
2023/10/22 06:58:33;;;;;;;3.63;1.70;;;;;;;9.91;100.00;101194.81;4971860;28;20469;-80
2023/10/22 07:01:05;;;;;;;3.30;1.50;;;;;;;11.63;100.00;101488.59;4992455;28;20433;-79
2023/10/22 07:03:36;;;;;;;3.17;1.23;;;;;;;8.83;100.00;101062.28;4977257;28;20587;-80
2023/10/22 07:06:02;;;;;;;2.90;1.33;;;;;;;9.20;100.00;101173.81;4996850;28;20492;-80
2023/10/22 07:08:28;;;;;;;9.83;1.43;;;;;;;10.50;100.00;101398.59;4989400;28;20862;-80
2023/10/22 07:10:54;;;;;;;3.70;1.40;;;;;;;10.34;100.00;101426.41;4977466;28;20210;-81
2023/10/22 07:13:20;;;;;;;2.40;0.90;;;;;;;9.39;100.00;101292.91;4978434;28;20448;-81
2023/10/22 07:15:47;;;;;;;2.60;0.87;;;;;;;9.16;100.00;101259.97;4973418;28;20431;-80
2023/10/22 07:18:13;;;;;;;3.37;0.80;;;;;;;10.36;100.00;101491.41;4990751;28;20473;-81
2023/10/22 07:20:39;;;;;;;3.50;0.80;;;;;;;10.67;100.00;101554.81;4989258;28;20573;-82
2023/10/22 07:23:04;;;;;;;2.83;0.70;;;;;;;10.85;100.00;101626.97;4981777;28;20443;-81
2023/10/22 07:25:31;;;;;;;3.43;0.80;;;;;;;10.70;100.00;101623.38;4976470;28;20186;-82
2023/10/22 07:27:56;;;;;;;3.03;0.80;;;;;;;11.80;100.00;101773.25;4971755;28;20186;-82
2023/10/22 07:30:29;;;;;;;4.73;0.90;;;;;;;10.67;100.00;101613.84;4976521;28;20954;-83
2023/10/22 07:32:55;;;;;;;3.80;1.00;;;;;;;10.76;100.00;101587.78;4988492;28;20179;-81
2023/10/22 07:35:21;;;;;;;2.77;0.73;;;;;;;8.87;100.00;101250.81;4973661;28;20435;-81
2023/10/22 07:37:47;;;;;;;2.90;0.70;;;;;;;9.30;100.00;101376.16;4996232;28;20298;-82
2023/10/22 07:40:13;;;;;;;4.00;1.10;;;;;;;9.04;100.00;101284.47;4973977;28;20454;-81
2023/10/22 07:42:42;;;;;;;3.60;1.00;;;;;;;10.72;100.00;101616.00;4981778;28;20229;-81
2023/10/22 07:45:09;;;;;;;2.70;0.80;;;;;;;8.98;100.00;101269.13;4989116;28;20568;-82
2023/10/22 07:47:35;;;;;;;2.90;1.03;;;;;;;10.76;100.00;101561.81;4971184;28;20434;-82
2023/10/22 07:50:05;;;;;;;4.53;1.10;;;;;;;9.74;100.00;101452.16;4987888;28;20490;-82
2023/10/22 07:52:32;;;;;;;2.83;0.80;;;;;;;8.83;100.00;101295.81;4993382;28;20445;-84
2023/10/22 07:54:58;;;;;;;3.37;0.93;;;;;;;10.23;100.00;101546.63;4969903;28;20457;-84
2023/10/22 07:57:26;;;;;;;3.63;1.10;;;;;;;9.21;100.00;101376.19;4965061;28;21008;-86
2023/10/22 07:59:52;;;;;;;5.90;1.47;;;;;;;10.44;100.00;101618.38;4983528;28;20549;-85
2023/10/22 08:02:17;;;;;;;2.70;0.80;;;;;;;9.03;100.00;101347.03;4970592;28;20488;-86
2023/10/22 08:04:43;;;;;;;4.60;1.00;;;;;;;9.35;100.00;101400.56;4990917;28;20178;-85
2023/10/22 08:07:09;;;;;;;3.83;0.90;;;;;;;10.35;100.00;101540.69;4978895;28;20175;-86
2023/10/22 08:09:34;;;;;;;6.23;1.00;;;;;;;9.45;100.00;101401.97;4980292;28;20264;-85
2023/10/22 08:11:59;;;;;;;6.63;1.20;;;;;;;9.66;100.00;101464.78;4993404;28;20197;-83
2023/10/22 08:14:25;;;;;;;6.03;1.63;;;;;;;8.76;100.00;101244.03;4981919;28;20607;-84
2023/10/22 08:16:50;;;;;;;4.13;1.27;;;;;;;8.86;100.00;101265.22;4978388;28;20206;-83
2023/10/22 08:19:16;;;;;;;9.87;1.27;;;;;;;9.53;100.00;101373.47;4983294;28;20207;-84
2023/10/22 08:21:42;;;;;;;7.70;2.30;;;;;;;9.80;100.00;101445.25;4974255;28;20182;-84
2023/10/22 08:24:08;;;;;;;4.33;1.30;;;;;;;9.10;100.00;101347.16;4978940;28;20450;-83
2023/10/22 08:26:33;;;;;;;5.43;1.60;;;;;;;8.93;100.00;101252.78;4988565;28;20193;-84
2023/10/22 08:28:59;;;;;;;4.43;1.50;;;;;;;10.81;100.00;101554.00;4974366;28;20603;-83
2023/10/22 08:31:25;;;;;;;5.90;1.50;;;;;;;8.95;100.00;101228.53;4975373;28;20182;-82
2023/10/22 08:33:50;;;;;;;5.57;1.40;;;;;;;9.45;100.00;101294.03;4988378;28;20284;-83
2023/10/22 08:36:16;;;;;;;5.20;1.20;;;;;;;10.05;100.00;101439.72;4978114;28;20668;-83
2023/10/22 08:38:43;;;;;;;5.43;1.27;;;;;;;10.79;100.00;101499.72;4973522;28;20206;-83
2023/10/22 08:41:21;;;;;;;5.17;1.27;;;;;;;10.56;100.00;101507.00;4984271;28;20430;-84
2023/10/22 08:43:48;;;;;;;7.37;1.23;;;;;;;10.55;100.00;101508.00;4966929;28;20447;-84
2023/10/22 08:46:13;;;;;;;4.90;1.27;;;;;;;10.40;100.00;101486.50;4975769;28;20477;-83
2023/10/22 08:48:40;;;;;;;3.63;1.00;;;;;;;10.58;100.00;101484.31;4975156;28;20517;-82
2023/10/22 08:51:07;;;;;;;4.97;0.80;;;;;;;9.15;100.00;101220.84;4978195;28;20178;-82
2023/10/22 08:53:32;;;;;;;9.40;1.40;;;;;;;8.71;100.00;101150.13;4981243;28;20419;-81
2023/10/22 08:56:00;;;;;;;5.90;1.20;;;;;;;10.98;100.00;101470.66;4980047;28;20440;-82
2023/10/22 08:58:26;;;;;;;7.70;1.33;;;;;;;10.98;100.00;101455.38;4977692;28;20214;-82
2023/10/22 09:00:51;;;;;;;4.37;1.00;;;;;;;10.13;100.00;101321.69;4990138;28;20483;-82
2023/10/22 09:03:18;;;;;;;6.67;1.53;;;;;;;9.93;100.00;101263.28;4969387;28;20183;-81
2023/10/22 09:05:45;;;;;;;4.50;1.17;;;;;;;9.26;100.00;101161.53;4987026;28;20190;-81
2023/10/22 09:08:10;;;;;;;3.67;0.90;;;;;;;9.12;100.00;101096.25;4968844;28;20453;-82
2023/10/22 09:10:37;;;;;;;5.37;1.23;;;;;;;10.79;100.00;101365.53;4971118;28;20457;-82
2023/10/22 09:13:22;;;;;;;5.43;1.30;;;;;;;11.00;100.00;101396.16;4973820;28;20655;-81
2023/10/22 09:15:54;;;;;;;11.23;1.90;;;;;;;9.27;100.00;101081.03;4976116;28;20434;-82
2023/10/22 09:18:20;;;;;;;6.00;1.13;;;;;;;10.10;100.00;101226.41;4978229;28;20577;-82
2023/10/22 09:20:46;;;;;;;5.17;1.23;;;;;;;9.49;100.00;101126.66;4989805;28;20918;-83
2023/10/22 09:23:22;;;;;;;6.57;1.47;;;;;;;8.96;100.00;101025.00;4969171;28;20178;-81
2023/10/22 09:25:54;;;;;;;5.80;1.60;;;;;;;9.27;100.00;101062.31;4964164;28;20442;-81
2023/10/22 09:28:24;;;;;;;3.90;1.33;;;;;;;10.59;100.00;101298.22;4981783;28;20816;-82
2023/10/22 09:31:05;;;;;;;5.87;1.47;;;;;;;10.95;100.00;101334.97;4974856;28;20439;-82
2023/10/22 09:33:39;;;;;;;4.70;1.40;;;;;;;10.49;100.00;101284.25;4988386;28;20444;-81
2023/10/22 09:36:11;;;;;;;4.43;1.20;;;;;;;12.18;100.00;101515.88;4974004;28;20426;-82
2023/10/22 09:38:49;;;;;;;5.60;1.20;;;;;;;12.28;100.00;101508.28;4969364;28;20481;-80
2023/10/22 09:41:27;;;;;;;5.27;1.43;;;;;;;12.10;100.00;101503.38;4983450;28;20492;-81
2023/10/22 09:44:00;;;;;;;4.40;1.00;;;;;;;10.04;100.00;101173.56;4968491;28;20992;-81
2023/10/22 09:46:33;;;;;;;4.37;1.47;;;;;;;9.96;100.00;101122.72;4987558;28;20515;-82
2023/10/22 09:49:00;;;;;;;5.77;1.30;;;;;;;10.89;100.00;101279.38;4989045;28;20457;-84
2023/10/22 09:51:30;;;;;;;5.07;1.27;;;;;;;9.40;100.00;100985.84;4986326;28;20450;-81
2023/10/22 09:53:57;;;;;;;5.13;1.33;;;;;;;11.04;100.00;101255.97;4985806;28;20492;-82
2023/10/22 09:56:23;;;;;;;9.63;1.67;;;;;;;10.02;100.00;101072.91;4972911;28;20851;-81
2023/10/22 09:58:55;;;;;;;5.30;1.50;;;;;;;10.37;100.00;101131.06;4976233;28;21017;-82
2023/10/22 10:01:23;;;;;;;4.40;1.10;;;;;;;10.02;100.00;101025.50;4968740;28;20450;-82
2023/10/22 10:03:48;;;;;;;9.47;1.80;;;;;;;10.32;100.00;101057.56;4968330;28;20446;-82
2023/10/22 10:06:15;;;;;;;9.57;1.50;;;;;;;10.19;100.00;100996.59;4965147;28;20477;-81
2023/10/22 10:08:42;;;;;;;4.20;1.10;;;;;;;9.75;100.00;100911.91;4963733;28;20198;-81
2023/10/22 10:11:11;;;;;;;5.37;1.47;;;;;;;9.64;100.00;100881.09;4972194;28;20966;-81
2023/10/22 10:13:37;;;;;;;5.30;1.23;;;;;;;10.10;100.00;100904.78;4971010;28;20477;-80
2023/10/22 10:16:05;;;;;;;4.93;1.13;;;;;;;9.92;100.00;100878.47;4974073;28;20441;-82
2023/10/22 10:19:08;;;;;;;4.13;1.07;;;;;;;12.96;100.00;101330.88;4974163;28;20213;-81
2023/10/22 10:21:33;;;;;;;3.07;1.00;;;;;;;13.14;100.00;101311.44;4973301;28;20448;-81
2023/10/22 10:24:14;;;;;;;5.87;1.20;;;;;;;12.73;100.00;101258.53;4977675;28;20445;-82
2023/10/22 10:26:40;;;;;;;3.30;1.00;;;;;;;11.72;100.00;101033.31;4975836;28;20679;-80
2023/10/22 10:29:05;;;;;;;7.00;1.40;;;;;;;11.78;100.00;101039.75;4979908;28;20516;-81
2023/10/22 10:31:31;;;;;;;4.13;1.20;;;;;;;12.27;100.00;101079.00;4988023;28;20429;-80
2023/10/22 10:34:02;;;;;;;4.80;1.17;;;;;;;11.44;100.00;100936.69;4978395;28;20186;-82
2023/10/22 10:36:28;;;;;;;3.93;1.00;;;;;;;12.38;100.00;101035.34;4973218;28;20190;-81
2023/10/22 10:39:14;;;;;;;4.00;0.97;;;;;;;12.75;100.00;101005.31;4994883;28;20984;-81
2023/10/22 10:41:52;;;;;;;3.87;1.10;;;;;;;11.98;100.00;100918.88;4988909;28;20206;-81
2023/10/22 10:44:18;;;;;;;3.30;0.90;;;;;;;11.12;100.00;100781.72;4978218;28;20456;-81
2023/10/22 10:46:43;;;;;;;3.47;0.87;;;;;;;11.19;100.00;100739.59;4979143;28;20429;-80
2023/10/22 10:49:09;;;;;;;3.47;0.80;;;;;;;12.48;100.00;100876.19;4980609;28;20249;-81
2023/10/22 10:51:34;;;;;;;3.50;1.00;;;;;;;12.78;100.00;100908.81;4977547;28;20852;-80
2023/10/22 10:54:12;;;;;;;4.93;1.20;;;;;;;14.08;100.00;100986.75;4979245;28;20666;-81
2023/10/22 10:56:48;;;;;;;4.23;1.07;;;;;;;13.05;100.00;100788.41;4993388;28;20186;-81
2023/10/22 10:59:36;;;;;;;3.27;0.83;;;;;;;14.02;100.00;100914.81;4978637;28;20454;-80
2023/10/22 11:02:04;;;;;;;3.20;0.73;;;;;;;14.46;100.00;100870.66;4970973;28;20422;-77
2023/10/22 11:04:30;;;;;;;3.93;0.70;;;;;;;13.18;100.00;100674.38;4970783;28;20963;-78
2023/10/22 11:06:56;;;;;;;3.00;0.80;;;;;;;12.41;100.00;100514.94;4988617;28;21189;-78
2023/10/22 11:09:22;;;;;;;5.50;1.10;;;;;;;12.38;100.00;100362.91;4962146;28;20461;-77
2023/10/22 11:12:05;;;;;;;3.80;0.80;;;;;;;14.33;100.00;100603.66;4962046;28;20454;-76
2023/10/22 11:14:32;;;;;;;3.10;0.87;;;;;;;13.24;100.00;100493.03;4969352;28;20198;-78
2023/10/22 11:16:58;;;;;;;4.57;1.00;;;;;;;12.77;100.00;100398.50;4968389;28;20838;-77
2023/10/22 11:19:25;;;;;;;4.10;0.83;;;;;;;14.12;100.00;100513.28;4970294;28;20636;-78
2023/10/22 11:21:54;;;;;;;4.53;0.97;;;;;;;13.37;100.00;100357.41;4974791;28;20453;-78
2023/10/22 11:24:21;;;;;;;4.50;0.80;;;;;;;13.68;100.00;100466.00;4967053;28;20446;-78
2023/10/22 11:26:49;;;;;;;5.20;0.80;;;;;;;14.01;100.00;100376.53;4971265;28;20438;-77